Time;durP1;ratioP1;P1;durP2;ratioP2;P2;SDS_P1;SDS_P2;PMS_P1;PMS_P2;Temp;Humidity;BMP_temperature;BMP_pressure;BME280_temperature;BME280_humidity;BME280_pressure;Samples;Min_cycle;Max_cycle;Signal;HPM_P1;HPM_P2
2022/08/11 00:01:24;;;;;;;1.60;1.00;;;;;;;15.25;82.53;99354.30;104640;1271;61125;-24
2022/08/11 00:03:59;;;;;;;1.60;1.20;;;;;;;15.52;81.76;99349.74;104711;1271;61019;-24
2022/08/11 00:06:31;;;;;;;3.50;1.10;;;;;;;15.80;80.04;99350.20;104724;1272;73857;-23
2022/08/11 00:09:00;;;;;;;1.70;1.00;;;;;;;15.68;79.64;99347.77;104677;1271;74470;-23
2022/08/11 00:11:32;;;;;;;1.50;1.30;;;;;;;15.47;80.54;99350.13;104663;1271;71838;-24
2022/08/11 00:13:59;;;;;;;3.50;1.10;;;;;;;15.27;81.67;99348.69;104656;1271;62314;-24
2022/08/11 00:16:27;;;;;;;2.10;1.10;;;;;;;15.60;80.73;99343.77;104670;1271;61804;-23
2022/08/11 00:18:55;;;;;;;2.80;1.10;;;;;;;15.89;79.37;99343.60;104857;1271;72757;-24
2022/08/11 00:21:25;;;;;;;2.20;1.20;;;;;;;15.84;79.43;99343.08;104858;1271;76785;-23
2022/08/11 00:24:13;;;;;;;1.40;1.30;;;;;;;15.60;79.82;99342.56;104791;1271;71467;-24
2022/08/11 00:26:46;;;;;;;1.30;1.20;;;;;;;15.31;81.23;99345.72;105104;1271;61042;-24
2022/08/11 00:29:13;;;;;;;2.00;1.00;;;;;;;15.31;82.04;99346.08;104758;1271;61139;-23
2022/08/11 00:32:01;;;;;;;1.90;1.00;;;;;;;15.77;80.24;99347.61;105102;1272;74128;-24
2022/08/11 00:34:31;;;;;;;1.30;1.10;;;;;;;15.86;79.17;99339.13;105096;1271;74657;-23
2022/08/11 00:37:08;;;;;;;1.60;1.10;;;;;;;15.72;79.51;99343.13;104808;1271;72935;-23
2022/08/11 00:39:45;;;;;;;7.40;1.50;;;;;;;15.42;80.65;99348.96;104720;1271;61233;-23
2022/08/11 00:42:37;;;;;;;2.50;1.00;;;;;;;15.24;81.87;99349.02;104784;1271;61175;-23
2022/08/11 00:45:24;;;;;;;2.80;1.10;;;;;;;15.70;80.36;99349.45;104863;1271;71527;-23
2022/08/11 00:48:14;;;;;;;1.40;1.20;;;;;;;15.93;78.98;99344.92;105152;1271;73372;-23
2022/08/11 00:51:06;;;;;;;3.30;1.30;;;;;;;15.80;79.23;99343.79;104777;1271;73328;-23
2022/08/11 00:54:19;;;;;;;1.80;1.40;;;;;;;15.54;80.16;99343.85;104620;1271;61060;-23
2022/08/11 00:57:09;;;;;;;1.80;1.00;;;;;;;15.34;81.32;99349.05;104750;1271;61138;-23
2022/08/11 00:59:59;;;;;;;6.90;1.40;;;;;;;15.86;79.68;99337.10;104836;1271;72779;-23
2022/08/11 01:02:38;;;;;;;;;;;;;;;15.90;78.78;99334.73;104825;1272;76701;-24
2022/08/11 01:05:34;;;;;;;1.40;1.20;;;;;;;15.56;79.69;99339.48;104639;1271;73026;-23
2022/08/11 01:08:14;;;;;;;2.90;1.70;;;;;;;15.33;80.91;99339.05;104776;1271;61780;-23
2022/08/11 01:10:51;;;;;;;2.50;1.10;;;;;;;15.16;81.83;99340.15;104703;1271;60998;-23
2022/08/11 01:13:20;;;;;;;6.10;1.50;;;;;;;15.46;80.97;99336.05;104706;1271;72906;-23
2022/08/11 01:15:48;;;;;;;4.10;1.60;;;;;;;15.66;79.79;99332.58;104721;1271;74735;-23
2022/08/11 01:18:39;;;;;;;3.40;1.50;;;;;;;15.58;79.72;99331.70;104742;1271;70303;-24
2022/08/11 01:21:37;;;;;;;3.20;1.70;;;;;;;15.32;80.75;99326.93;104638;1271;61163;-23
2022/08/11 01:24:39;;;;;;;2.60;1.30;;;;;;;15.11;81.77;99327.55;104668;1272;61173;-23
2022/08/11 01:27:16;;;;;;;3.00;1.40;;;;;;;15.66;79.96;99323.42;104781;1271;72842;-23
2022/08/11 01:30:38;;;;;;;2.30;1.50;;;;;;;15.85;78.87;99324.00;104725;1271;74688;-23
2022/08/11 01:33:44;;;;;;;1.90;1.30;;;;;;;15.61;78.98;99320.04;104301;1278;71414;-23
2022/08/11 01:36:30;;;;;;;5.30;1.70;;;;;;;15.27;80.28;99324.02;104774;1271;61032;-23
2022/08/11 01:39:29;;;;;;;1.50;1.10;;;;;;;14.99;81.95;99324.23;104900;1271;61136;-23
2022/08/11 01:45:25;;;;;;;1.50;1.20;;;;;;;15.60;79.08;99317.17;105096;1270;73350;-23
2022/08/11 01:48:15;;;;;;;1.70;1.40;;;;;;;15.32;80.11;99322.19;105131;1271;71725;-23
2022/08/11 01:51:14;;;;;;;2.30;1.70;;;;;;;15.10;80.92;99324.77;105148;1271;61068;-23
2022/08/11 01:54:17;;;;;;;5.40;1.10;;;;;;;14.98;81.44;99320.88;105135;1271;60995;-24
2022/08/11 01:56:57;;;;;;;1.50;1.00;;;;;;;15.63;79.81;99319.65;105182;1271;74068;-23
2022/08/11 01:59:27;;;;;;;3.20;1.40;;;;;;;15.69;78.63;99321.77;104770;1271;74557;-23
2022/08/11 02:02:13;;;;;;;6.00;1.40;;;;;;;15.65;78.50;99324.33;105061;1271;71658;-23
2022/08/11 02:05:01;;;;;;;3.90;1.50;;;;;;;15.26;79.94;99330.29;105096;1272;63037;-23
2022/08/11 02:07:48;;;;;;;2.60;1.30;;;;;;;15.06;80.26;99332.02;104916;1271;63208;-23
2022/08/11 02:13:13;;;;;;;3.20;1.20;;;;;;;15.35;80.16;99331.81;104817;1271;76089;-23
2022/08/11 02:15:50;;;;;;;1.90;1.10;;;;;;;15.62;78.52;99322.83;104640;1271;75780;-23
2022/08/11 02:23:38;;;;;;;2.80;1.40;;;;;;;15.51;78.30;99324.19;104640;1271;61047;-23
2022/08/11 02:24:19;;;;;;;2.60;1.80;;;;;;;14.79;80.70;99326.13;104676;1271;76536;-22
2022/08/11 02:26:59;;;;;;;7.10;1.00;;;;;;;14.57;81.23;99328.02;104650;1272;76082;-23
2022/08/11 02:29:30;;;;;;;1.70;1.10;;;;;;;15.05;80.78;99328.05;104755;1271;75376;-22
2022/08/11 02:35:48;;;;;;;1.70;1.20;;;;;;;15.34;78.76;99331.27;104843;1271;61857;-22
2022/08/11 02:38:17;;;;;;;1.50;1.30;;;;;;;15.02;79.27;99331.28;104999;1271;75230;-23
2022/08/11 02:44:19;;;;;;;2.50;0.90;;;;;;;14.56;81.47;99332.86;105030;1271;75346;-23
2022/08/11 02:47:02;;;;;;;3.10;1.60;;;;;;;15.17;79.88;99334.48;105117;1272;61882;-23
2022/08/11 02:49:55;;;;;;;1.80;1.50;;;;;;;15.26;78.81;99333.20;105037;1271;62951;-23
2022/08/11 02:52:41;;;;;;;2.70;1.70;;;;;;;15.10;79.05;99336.14;104854;1271;76628;-23
2022/08/11 02:55:21;;;;;;;2.40;1.70;;;;;;;14.69;81.05;99337.20;104674;1271;75766;-22
2022/08/11 02:58:27;;;;;;;10.20;2.00;;;;;;;14.40;82.32;99342.52;104623;1271;74534;-23
2022/08/11 03:01:02;;;;;;;5.70;3.70;;;;;;;14.23;83.35;99339.48;104864;1271;64670;-23
2022/08/11 03:03:34;;;;;;;4.40;1.70;;;;;;;14.72;81.85;99341.80;104693;1271;61189;-23
2022/08/11 03:06:11;;;;;;;2.30;1.60;;;;;;;14.76;81.38;99344.08;104725;1271;76623;-23
2022/08/11 03:09:02;;;;;;;2.90;1.40;;;;;;;15.02;79.44;99348.77;104707;1271;77027;-23
2022/08/11 03:18:17;;;;;;;2.20;1.30;;;;;;;14.31;81.08;99349.06;104770;1271;61762;-23
2022/08/11 03:20:50;;;;;;;5.20;1.30;;;;;;;14.90;80.23;99351.16;104972;1271;76635;-23
2022/08/11 03:23:43;;;;;;;3.50;1.50;;;;;;;15.16;78.89;99350.80;104768;1271;76990;-23
2022/08/11 03:26:31;;;;;;;2.60;1.50;;;;;;;15.11;78.97;99352.48;105144;1271;74369;-23
2022/08/11 03:29:27;;;;;;;4.50;2.40;;;;;;;14.60;80.88;99355.36;104961;1271;62901;-23
2022/08/11 03:32:03;;;;;;;6.90;2.10;;;;;;;14.40;82.15;99354.04;105131;1271;63402;-23
2022/08/11 03:34:35;;;;;;;4.00;1.50;;;;;;;14.14;83.78;99354.67;104768;1271;75524;-23
2022/08/11 03:43:28;;;;;;;2.70;1.70;;;;;;;15.66;78.47;99348.27;104833;1271;61131;-23
2022/08/11 03:46:09;;;;;;;2.50;1.90;;;;;;;15.74;78.12;99348.89;105005;1271;63163;-23
2022/08/11 03:48:39;;;;;;;2.90;1.80;;;;;;;15.67;77.78;99348.50;104459;1271;76556;-23
2022/08/11 03:51:42;;;;;;;1.80;1.50;;;;;;;16.49;76.24;99346.00;104606;1271;76885;-24
2022/08/11 03:54:51;;;;;;;4.90;1.90;;;;;;;17.08;73.13;99346.52;104531;1271;75598;-24
2022/08/11 03:58:13;;;;;;;2.70;2.10;;;;;;;17.01;72.68;99341.33;104747;1271;63003;-23
2022/08/11 04:01:14;;;;;;;5.50;2.00;;;;;;;16.50;73.68;99344.27;104111;1280;62124;-23
2022/08/11 04:04:04;;;;;;;2.50;2.20;;;;;;;16.13;75.69;99344.54;105074;1271;76775;-23
2022/08/11 04:06:43;;;;;;;3.60;1.50;;;;;;;15.60;78.14;99348.50;105102;1271;76866;-23
2022/08/11 04:09:17;;;;;;;4.30;2.20;;;;;;;16.27;75.70;99350.38;104989;1271;74187;-24
2022/08/11 04:12:07;;;;;;;4.20;2.20;;;;;;;16.23;75.11;99352.13;105056;1271;63196;-23
2022/08/11 04:17:47;;;;;;;4.60;2.30;;;;;;;16.11;75.95;99347.42;105110;1272;76334;-23
2022/08/11 04:20:33;;;;;;;4.50;2.40;;;;;;;15.74;77.33;99348.18;105067;1271;75961;-23
2022/08/11 04:23:04;;;;;;;2.60;1.70;;;;;;;15.51;79.41;99351.79;104847;1271;75135;-23
2022/08/11 04:25:53;;;;;;;3.20;2.00;;;;;;;16.24;77.51;99353.77;104651;1271;61099;-23
2022/08/11 04:28:33;;;;;;;16.50;8.50;;;;;;;16.97;73.99;99349.31;104699;1271;61734;-23
2022/08/11 04:31:55;;;;;;;8.30;5.50;;;;;;;16.66;74.43;99344.48;104835;1271;76276;-23
2022/08/11 04:34:26;;;;;;;6.10;2.60;;;;;;;16.86;73.92;99339.33;104987;1271;76079;-24
2022/08/11 04:37:35;;;;;;;4.30;2.50;;;;;;;16.16;76.03;99341.82;104894;1271;74108;-24
2022/08/11 04:40:41;;;;;;;8.70;4.70;;;;;;;16.37;75.91;99344.11;105043;1271;60975;-23
2022/08/11 04:44:00;;;;;;;15.60;10.80;;;;;;;16.45;75.89;99344.02;105101;1271;62765;-23
2022/08/11 04:46:48;;;;;;;14.00;8.00;;;;;;;16.28;76.00;99348.28;104813;1271;76784;-23
2022/08/11 05:02:03;;;;;;;4.10;2.60;;;;;;;17.31;73.83;99343.11;104951;1271;76595;-23
2022/08/11 05:08:03;;;;;;;3.90;3.20;;;;;;;16.67;74.12;99343.56;104746;1270;75367;-23
2022/08/11 05:11:02;;;;;;;10.30;7.00;;;;;;;16.36;76.18;99345.64;104918;1271;61942;-23
2022/08/11 05:34:53;;;;;;;4.80;2.70;;;;;;;17.50;73.48;99348.49;104784;1271;75933;-23
2022/08/11 05:37:28;;;;;;;5.00;2.30;;;;;;;17.22;74.23;99349.17;104683;1271;74513;-23
2022/08/11 05:57:20;;;;;;;5.90;2.50;;;;;;;17.12;75.07;99344.25;104857;1271;61761;-23
2022/08/11 06:00:09;;;;;;;6.60;1.80;;;;;;;17.04;75.18;99343.76;104687;1271;76793;-23
2022/08/11 06:02:45;;;;;;;3.60;2.20;;;;;;;17.09;75.03;99340.81;104770;1271;77118;-23
2022/08/11 06:05:13;;;;;;;3.80;2.00;;;;;;;17.68;74.83;99337.31;104665;1271;74310;-23
2022/08/11 06:07:40;;;;;;;3.50;2.20;;;;;;;17.79;72.91;99332.63;104727;1271;61866;-23
2022/08/11 06:10:45;;;;;;;2.40;2.10;;;;;;;17.47;75.06;99331.45;105077;1271;61552;-23
2022/08/11 06:13:15;;;;;;;2.50;2.30;;;;;;;17.83;73.88;99333.60;104989;1271;76751;-23
2022/08/11 06:15:48;;;;;;;3.60;2.40;;;;;;;17.63;73.74;99331.71;104694;1271;76760;-23
2022/08/11 06:18:15;;;;;;;2.50;1.90;;;;;;;17.74;75.15;99333.20;104705;1272;74259;-23
2022/08/11 06:20:48;;;;;;;4.30;1.60;;;;;;;18.62;71.52;99333.52;104653;1272;60973;-24
2022/08/11 06:23:19;;;;;;;4.00;2.60;;;;;;;18.69;70.58;99334.45;104740;1271;63070;-23
2022/08/11 06:25:46;;;;;;;6.00;2.80;;;;;;;17.88;73.70;99332.16;104634;1271;75553;-23
2022/08/11 06:28:13;;;;;;;5.40;2.50;;;;;;;18.19;73.15;99330.13;104630;1271;75943;-24
2022/08/11 06:30:47;;;;;;;2.60;2.20;;;;;;;18.08;72.53;99322.37;104821;1271;75597;-24
2022/08/11 06:33:17;;;;;;;7.50;2.60;;;;;;;18.06;72.97;99328.77;104824;1271;61340;-24
2022/08/11 06:36:10;;;;;;;5.50;3.30;;;;;;;18.02;73.17;99326.28;104794;1271;62878;-24
2022/08/11 06:39:22;;;;;;;4.70;3.20;;;;;;;18.50;72.61;99327.31;104660;1271;75271;-23
2022/08/11 06:42:10;;;;;;;3.10;2.10;;;;;;;19.08;70.48;99325.70;104805;1271;77169;-24
2022/08/11 06:44:43;;;;;;;4.10;2.30;;;;;;;19.05;69.63;99327.36;105116;1271;75371;-22
2022/08/11 06:47:12;;;;;;;5.00;3.80;;;;;;;19.29;68.91;99326.43;104858;1271;63084;-23
2022/08/11 06:52:47;;;;;;;3.90;3.20;;;;;;;19.33;68.46;99328.80;104308;1278;76534;-23
2022/08/11 07:01:34;;;;;;;5.20;2.30;;;;;;;18.85;69.49;99330.28;104886;1271;62187;-23
2022/08/11 07:04:08;;;;;;;7.10;2.70;;;;;;;18.50;70.89;99325.54;104583;1271;61744;-23
2022/08/11 07:15:40;;;;;;;4.10;2.40;;;;;;;18.47;71.23;99326.37;104519;1271;76688;-23
2022/08/11 07:16:02;;;;;;;3.70;2.40;;;;;;;19.90;67.17;99340.80;104909;1271;63120;-23
2022/08/11 07:30:22;;;;;;;3.80;3.10;;;;;;;19.14;69.68;99358.77;105089;1271;61061;-25
2022/08/11 07:32:54;;;;;;;3.30;2.40;;;;;;;19.06;69.42;99362.25;104922;1272;61641;-24
2022/08/11 07:35:37;;;;;;;4.20;2.60;;;;;;;18.64;70.25;99366.00;104673;1271;75561;-25
2022/08/11 07:38:06;;;;;;;2.50;2.30;;;;;;;19.01;70.47;99365.89;104679;1271;76987;-24
2022/08/11 07:40:34;;;;;;;2.30;2.10;;;;;;;18.97;69.28;99361.98;104707;1271;74255;-24
2022/08/11 07:43:02;;;;;;;3.00;1.90;;;;;;;19.19;68.86;99359.41;104830;1271;63112;-25
2022/08/11 07:53:51;;;;;;;3.60;2.50;;;;;;;19.47;69.69;99346.11;104738;1271;75249;-25
2022/08/11 07:56:36;;;;;;;6.70;2.50;;;;;;;19.36;69.79;99347.31;104837;1271;61832;-25
2022/08/11 08:19:05;;;;;;;3.80;3.20;;;;;;;19.44;70.15;99357.86;105121;1271;76927;-25
2022/08/11 08:21:33;;;;;;;6.50;4.50;;;;;;;19.37;70.50;99354.56;104734;1271;75659;-25
2022/08/11 08:24:00;;;;;;;5.20;4.80;;;;;;;19.14;70.82;99342.07;104750;1272;61132;-25
2022/08/11 08:32:04;;;;;;;18.40;15.70;;;;;;;18.79;71.99;99328.92;104750;1271;76066;-25
2022/08/11 08:34:31;;;;;;;7.50;3.10;;;;;;;18.88;72.57;99321.52;104589;1271;75682;-25
2022/08/11 08:36:59;;;;;;;6.10;4.70;;;;;;;19.08;71.41;99319.02;104921;1271;63113;-25
2022/08/11 08:39:27;;;;;;;4.50;4.00;;;;;;;19.11;71.01;99303.80;104753;1271;61185;-25
2022/08/11 08:41:56;;;;;;;4.60;3.20;;;;;;;19.19;71.17;99300.99;104860;1271;73670;-25
2022/08/11 08:44:24;;;;;;;3.50;3.10;;;;;;;19.25;71.28;99291.36;104683;1271;75900;-24
2022/08/11 08:47:15;;;;;;;3.50;2.80;;;;;;;19.42;70.85;99289.41;104668;1271;75351;-24
2022/08/11 08:50:06;;;;;;;5.00;3.10;;;;;;;19.24;71.12;99304.81;104674;1271;62545;-24
2022/08/11 08:52:39;;;;;;;4.60;4.00;;;;;;;18.93;72.25;99317.08;104871;1271;62022;-25
2022/08/11 08:55:11;;;;;;;4.00;2.90;;;;;;;18.85;73.02;99323.23;103685;1271;1299444;-24
2022/08/11 08:57:39;;;;;;;7.20;3.00;;;;;;;19.28;71.28;99333.80;104656;1271;76438;-25
2022/08/11 09:00:08;;;;;;;18.50;12.70;;;;;;;19.38;71.21;99336.31;104839;1271;75188;-25
2022/08/11 09:02:42;;;;;;;7.60;4.50;;;;;;;18.90;72.70;99330.57;104642;1271;61782;-25
2022/08/11 09:05:10;;;;;;;7.30;4.50;;;;;;;18.49;74.50;99332.52;104803;1271;63280;-25
2022/08/11 09:07:38;;;;;;;5.80;4.10;;;;;;;18.31;75.43;99327.08;104609;1271;76310;-25
2022/08/11 09:10:08;;;;;;;5.00;3.30;;;;;;;18.48;75.39;99324.35;105046;1271;76861;-24
2022/08/11 09:12:36;;;;;;;4.90;3.50;;;;;;;18.74;75.43;99333.81;104638;1271;75407;-25
2022/08/11 09:15:07;;;;;;;5.10;4.50;;;;;;;18.85;75.61;99341.73;104691;1272;62173;-23
2022/08/11 09:17:49;;;;;;;3.80;3.00;;;;;;;19.19;74.29;99344.15;104456;1271;62104;-23
2022/08/11 09:20:22;;;;;;;3.60;3.20;;;;;;;18.91;75.10;99345.06;104872;1271;76411;-25
2022/08/11 09:28:45;;;;;;;4.80;3.10;;;;;;;18.81;75.10;99348.36;104593;1271;61010;-23
2022/08/11 09:31:13;;;;;;;4.00;2.90;;;;;;;19.26;74.64;99348.80;104967;1271;61051;-23
2022/08/11 09:33:41;;;;;;;5.00;3.40;;;;;;;19.07;74.86;99347.02;105090;1272;75814;-23
2022/08/11 09:41:45;;;;;;;2.00;1.80;;;;;;;19.30;74.69;99342.86;104850;1271;64748;-25
2022/08/11 09:44:48;;;;;;;2.60;2.20;;;;;;;19.72;71.95;99342.20;104880;1271;63019;-25
2022/08/11 09:47:30;;;;;;;6.20;2.50;;;;;;;19.54;72.06;99337.76;105068;1271;76540;-25
2022/08/11 09:49:58;;;;;;;3.40;2.90;;;;;;;19.51;72.31;99333.34;104867;1271;76988;-25
2022/08/11 09:52:33;;;;;;;3.60;2.90;;;;;;;18.90;73.08;99331.48;104659;1272;75452;-22
2022/08/11 09:55:01;;;;;;;4.90;3.30;;;;;;;18.48;75.41;99333.55;104790;1271;62728;-25
2022/08/11 10:00:15;;;;;;;2.90;2.70;;;;;;;18.43;75.36;99337.69;104761;1272;76303;-25
2022/08/11 10:02:45;;;;;;;7.00;2.90;;;;;;;18.91;75.11;99347.90;104936;1271;76983;-25
2022/08/11 10:08:06;;;;;;;5.00;3.70;;;;;;;19.56;72.67;99361.60;104873;1271;62829;-25
2022/08/11 10:10:38;;;;;;;5.50;4.90;;;;;;;19.38;72.50;99365.35;104709;1271;62810;-25
2022/08/11 10:13:10;;;;;;;4.10;3.10;;;;;;;19.23;72.61;99373.27;104642;1271;75387;-23
2022/08/11 10:15:58;;;;;;;3.60;2.80;;;;;;;18.86;74.05;99376.80;104717;1271;76082;-24
2022/08/11 10:18:50;;;;;;;4.50;2.40;;;;;;;19.00;73.17;99377.55;104633;1271;75450;-25
2022/08/11 10:27:26;;;;;;;3.50;3.10;;;;;;;19.02;72.68;99371.90;103964;1285;61637;-23
2022/08/11 10:36:05;;;;;;;3.10;2.80;;;;;;;19.26;71.91;99375.19;102808;1284;2128838;-23
2022/08/11 10:38:45;;;;;;;3.40;3.10;;;;;;;19.84;71.00;99366.75;104222;1284;63281;-24
2022/08/11 10:43:59;;;;;;;9.50;5.90;;;;;;;19.48;73.33;99362.45;104031;1286;74985;-23
2022/08/11 10:49:16;;;;;;;7.00;6.00;;;;;;;19.43;74.91;99374.34;104154;1284;75112;-25
2022/08/11 11:00:06;;;;;;;5.20;3.00;;;;;;;18.97;76.29;99377.17;104223;1281;76198;-23
2022/08/11 11:02:33;;;;;;;6.00;3.90;;;;;;;18.72;76.90;99374.24;104082;1286;75736;-23
2022/08/11 11:05:13;;;;;;;2.40;2.10;;;;;;;18.64;78.63;99373.55;104103;1284;63713;-23
2022/08/11 11:07:49;;;;;;;6.40;3.10;;;;;;;18.99;78.32;99367.95;104238;1284;61766;-23
2022/08/11 11:10:17;;;;;;;8.10;2.60;;;;;;;19.35;76.74;99367.48;104372;1284;75871;-23
2022/08/11 11:18:24;;;;;;;2.20;2.00;;;;;;;19.35;77.69;99362.27;103919;1284;64584;-24
2022/08/11 11:21:10;;;;;;;2.60;2.20;;;;;;;19.83;77.32;99357.81;103634;1284;62758;-24
2022/08/11 11:23:59;;;;;;;3.80;2.60;;;;;;;20.28;75.60;99346.31;103784;1284;75860;-24
2022/08/11 11:26:37;;;;;;;3.10;2.30;;;;;;;20.21;74.44;99339.23;104229;1284;76110;-23
2022/08/11 11:29:19;;;;;;;2.70;2.50;;;;;;;19.99;75.41;99339.79;104086;1284;75133;-23
2022/08/11 11:31:52;;;;;;;3.10;2.50;;;;;;;19.83;77.26;99343.64;104020;1282;62075;-23
2022/08/11 11:34:42;;;;;;;2.90;2.20;;;;;;;19.62;78.23;99342.40;103682;1283;62068;-23
2022/08/11 11:37:21;;;;;;;2.50;2.10;;;;;;;20.15;77.16;99330.20;104194;1284;75866;-24
2022/08/11 11:39:48;;;;;;;2.20;1.90;;;;;;;20.33;74.68;99319.30;103902;1284;76963;-24
2022/08/11 11:42:17;;;;;;;2.40;2.10;;;;;;;20.20;76.68;99315.94;104028;1284;74487;-23
2022/08/11 11:44:44;;;;;;;2.30;2.10;;;;;;;20.11;77.17;99318.73;104352;1284;61869;-23
2022/08/11 11:47:12;;;;;;;2.40;2.20;;;;;;;19.93;76.64;99317.44;104104;1284;61762;-23
2022/08/11 11:49:42;;;;;;;2.00;1.80;;;;;;;19.72;77.08;99318.27;104319;1284;74893;-23
2022/08/11 11:52:17;;;;;;;3.00;2.10;;;;;;;20.00;77.62;99317.83;104215;1284;76587;-23
2022/08/11 11:54:48;;;;;;;3.00;2.10;;;;;;;20.38;75.20;99317.08;104122;1284;74356;-23
2022/08/11 12:03:02;;;;;;;3.30;2.20;;;;;;;19.94;76.86;99331.61;104243;1284;76008;-24
2022/08/11 12:05:30;;;;;;;1.90;1.60;;;;;;;19.73;77.16;99332.35;104109;1286;75281;-24
2022/08/11 12:08:16;;;;;;;4.10;1.90;;;;;;;20.10;76.05;99324.38;104052;1284;75141;-25
2022/08/11 12:13:49;;;;;;;2.90;2.10;;;;;;;20.31;75.45;99310.58;103732;1284;63076;-25
2022/08/11 12:16:18;;;;;;;8.50;3.00;;;;;;;19.96;76.10;99301.43;103739;1284;74986;-25
2022/08/11 12:19:02;;;;;;;2.80;2.60;;;;;;;19.65;77.81;99299.46;103666;1284;77044;-25
2022/08/11 12:21:29;;;;;;;2.50;2.30;;;;;;;19.41;78.91;99298.54;103587;1287;73910;-24
2022/08/11 12:29:36;;;;;;;3.30;2.40;;;;;;;20.15;75.81;99308.83;103631;1283;75243;-25
2022/08/11 12:32:09;;;;;;;3.20;2.10;;;;;;;19.96;76.40;99311.45;103776;1283;76420;-25
2022/08/11 12:34:37;;;;;;;2.10;1.90;;;;;;;19.77;77.24;99313.42;103640;1284;74337;-25
2022/08/11 12:37:07;;;;;;;2.20;1.80;;;;;;;19.59;77.75;99318.48;103540;1284;63575;-24
2022/08/11 12:45:30;;;;;;;3.90;2.40;;;;;;;20.32;76.04;99317.12;104269;1283;76920;-25
2022/08/11 12:55:04;;;;;;;2.00;1.50;;;;;;;19.49;80.60;99279.65;104094;1283;63108;-24
2022/08/11 13:06:01;;;;;;;5.30;2.70;;;;;;;19.65;79.66;99261.77;103165;1290;63160;-25
2022/08/11 13:08:30;;;;;;;3.10;1.90;;;;;;;19.57;80.50;99267.30;102984;1290;62877;-25
2022/08/11 13:13:46;;;;;;;2.60;2.40;;;;;;;20.65;76.41;99281.13;103092;1290;77085;-25
2022/08/11 13:16:25;;;;;;;3.10;2.40;;;;;;;20.51;76.65;99278.39;103134;1290;74589;-25
2022/08/11 13:18:53;;;;;;;4.80;2.70;;;;;;;20.50;77.80;99275.52;102949;1291;62049;-25
2022/08/11 13:21:21;;;;;;;3.60;2.60;;;;;;;20.38;78.03;99271.84;103165;1290;63379;-25
2022/08/11 13:23:50;;;;;;;4.60;2.00;;;;;;;20.15;77.46;99265.73;103375;1290;74564;-25
2022/08/11 13:26:30;;;;;;;3.10;2.30;;;;;;;20.36;77.45;99271.65;103075;1290;75750;-25
2022/08/11 13:29:20;;;;;;;5.40;2.40;;;;;;;20.52;76.75;99278.11;103542;1284;75485;-25
2022/08/11 13:31:47;;;;;;;3.40;2.90;;;;;;;19.92;78.03;99284.88;103939;1284;62810;-25
2022/08/11 13:34:16;;;;;;;6.90;4.80;;;;;;;19.62;79.05;99296.88;103723;1284;61102;-25
2022/08/11 13:36:43;;;;;;;6.60;4.50;;;;;;;19.25;80.45;99295.91;103714;1284;74778;-25
2022/08/11 13:39:11;;;;;;;4.80;3.20;;;;;;;19.68;78.83;99299.67;104310;1277;76952;-25
2022/08/11 13:41:40;;;;;;;7.40;6.60;;;;;;;19.89;77.54;99297.09;104318;1277;73996;-25
2022/08/11 13:44:11;;;;;;;3.80;2.90;;;;;;;19.42;79.50;99297.92;104241;1277;63220;-25
2022/08/11 13:46:43;;;;;;;6.00;3.10;;;;;;;19.33;80.57;99299.32;104416;1278;62278;-24
2022/08/11 13:49:10;;;;;;;6.40;3.10;;;;;;;19.17;81.65;99305.30;104539;1277;74476;-23
2022/08/11 13:51:38;;;;;;;4.50;2.80;;;;;;;19.00;82.28;99299.65;104181;1277;77050;-21
2022/08/11 13:54:07;;;;;;;6.40;2.30;;;;;;;18.92;82.77;99293.09;104328;1277;75294;-21
2022/08/11 13:56:40;;;;;;;2.50;2.30;;;;;;;19.18;82.45;99287.86;104349;1276;61751;-21
2022/08/11 13:59:08;;;;;;;6.40;2.70;;;;;;;19.12;83.02;99287.05;104292;1277;61113;-21
2022/08/11 14:01:41;;;;;;;5.20;2.50;;;;;;;18.86;83.68;99286.23;104327;1277;74528;-22
2022/08/11 14:04:48;;;;;;;7.80;3.00;;;;;;;18.64;84.78;99288.46;104224;1277;77295;-22
2022/08/11 14:07:18;;;;;;;5.60;3.70;;;;;;;18.57;85.27;99289.59;104418;1277;74710;-22
2022/08/11 14:09:46;;;;;;;2.80;2.50;;;;;;;18.69;85.52;99287.39;104239;1277;62230;-22
2022/08/11 14:15:19;;;;;;;13.30;8.30;;;;;;;18.28;87.99;99296.27;104258;1277;75507;-22
2022/08/11 14:17:53;;;;;;;14.60;9.70;;;;;;;18.67;86.23;99306.13;104231;1277;75889;-23
2022/08/11 14:20:21;;;;;;;30.80;18.50;;;;;;;18.80;85.31;99307.15;104288;1277;75372;-23
2022/08/11 14:23:07;;;;;;;15.10;10.50;;;;;;;18.39;87.83;99308.08;104351;1277;62841;-23
2022/08/11 14:25:34;;;;;;;23.60;13.50;;;;;;;18.50;87.76;99308.10;104294;1278;63049;-23
2022/08/11 14:28:21;;;;;;;20.90;14.80;;;;;;;18.81;86.16;99309.29;104309;1277;75769;-23
2022/08/11 14:31:04;;;;;;;13.50;9.60;;;;;;;19.24;84.29;99315.95;104238;1277;77054;-23
2022/08/11 14:33:34;;;;;;;46.00;41.40;;;;;;;18.46;87.06;99307.36;104248;1277;75582;-22
2022/08/11 14:36:26;;;;;;;21.80;13.50;;;;;;;18.40;88.09;99305.72;104262;1277;64725;-23
2022/08/11 14:38:53;;;;;;;10.30;7.70;;;;;;;19.11;85.47;99331.28;104272;1277;63321;-21
2022/08/11 14:47:14;;;;;;;42.60;35.10;;;;;;;18.26;88.59;99338.55;104243;1277;74343;-21
2022/08/11 14:49:53;;;;;;;13.10;9.00;;;;;;;18.56;86.86;99346.69;104173;1277;61949;-21
2022/08/11 14:53:05;;;;;;;7.30;5.00;;;;;;;18.87;84.77;99345.60;104267;1277;61142;-21
2022/08/11 14:58:28;;;;;;;6.10;3.70;;;;;;;18.74;84.32;99358.82;104312;1277;77177;-21
2022/08/11 15:00:58;;;;;;;5.20;3.50;;;;;;;19.09;83.54;99361.13;104303;1277;74131;-20
2022/08/11 15:03:29;;;;;;;2.90;2.60;;;;;;;19.24;81.61;99366.50;104245;1277;63150;-21
2022/08/11 15:05:58;;;;;;;4.30;3.40;;;;;;;18.89;82.53;99370.86;104265;1277;61143;-20
2022/08/11 15:14:04;;;;;;;3.60;2.70;;;;;;;18.56;81.52;99375.71;104272;1277;75567;-20
2022/08/11 15:19:22;;;;;;;9.10;5.60;;;;;;;17.79;86.21;99335.12;104579;1277;63079;-21
2022/08/11 15:24:36;;;;;;;4.40;3.00;;;;;;;17.74;87.18;99336.82;104379;1277;76993;-20
2022/08/11 15:38:35;;;;;;;3.40;2.90;;;;;;;18.39;86.61;99329.48;104285;1277;76743;-20
2022/08/11 15:46:44;;;;;;;2.10;1.90;;;;;;;18.32;86.10;99321.88;104320;1277;61215;-21
2022/08/11 15:49:17;;;;;;;2.60;2.30;;;;;;;18.80;84.45;99313.39;104375;1275;75578;-21
2022/08/11 15:51:59;;;;;;;5.50;3.10;;;;;;;18.96;82.90;99302.52;104380;1277;77033;-21
2022/08/11 15:54:30;;;;;;;3.00;2.70;;;;;;;18.87;83.33;99300.73;104225;1277;75767;-21
2022/08/11 15:57:00;;;;;;;3.70;2.70;;;;;;;18.64;84.43;99301.62;104386;1277;63234;-21
2022/08/11 16:04:54;;;;;;;3.80;3.10;;;;;;;18.92;83.56;99299.81;104516;1277;77050;-21
2022/08/11 16:07:26;;;;;;;5.10;3.40;;;;;;;18.80;84.12;99299.50;104356;1277;74976;-21
2022/08/11 16:10:07;;;;;;;4.20;3.70;;;;;;;18.64;84.68;99303.08;104207;1277;62054;-21
2022/08/11 16:18:39;;;;;;;;;;;;;;;18.98;83.94;99305.48;104343;1277;75904;-21
2022/08/11 16:21:12;;;;;;;4.70;3.20;;;;;;;18.81;84.11;99307.02;104363;1277;75137;-21
2022/08/11 16:24:00;;;;;;;4.70;3.80;;;;;;;18.62;85.15;99304.33;104327;1276;61689;-21
2022/08/11 16:26:28;;;;;;;2.90;2.20;;;;;;;18.50;85.85;99303.56;104597;1277;63071;-21
2022/08/11 16:29:15;;;;;;;3.20;2.20;;;;;;;19.06;84.10;99305.81;104366;1277;76341;-21
2022/08/11 16:32:15;;;;;;;3.80;2.50;;;;;;;19.37;82.11;99305.30;104384;1277;77083;-21
2022/08/11 16:40:03;;;;;;;6.90;2.60;;;;;;;18.60;85.64;99311.92;104173;1277;62235;-21
2022/08/11 16:48:26;;;;;;;5.30;3.80;;;;;;;18.82;84.36;99317.30;104539;1277;75410;-21
2022/08/11 16:51:06;;;;;;;3.00;2.70;;;;;;;18.78;84.74;99319.09;104186;1277;62322;-21
2022/08/11 16:53:34;;;;;;;3.30;2.30;;;;;;;18.79;85.14;99321.11;104412;1277;62747;-20
2022/08/11 16:56:26;;;;;;;7.90;2.90;;;;;;;19.37;82.73;99310.41;104333;1277;76720;-21
2022/08/11 16:59:13;;;;;;;3.90;3.10;;;;;;;19.48;81.63;99302.64;104410;1277;77031;-21
2022/08/11 17:01:48;;;;;;;4.50;3.20;;;;;;;19.27;82.02;99297.28;104553;1276;75144;-21
2022/08/11 17:13:27;;;;;;;3.60;3.00;;;;;;;19.39;81.53;99273.39;104629;1276;76916;-21
2022/08/11 17:16:06;;;;;;;4.30;3.00;;;;;;;19.17;82.29;99271.52;104189;1277;74881;-21
2022/08/11 17:19:16;;;;;;;4.20;2.90;;;;;;;18.87;83.63;99274.11;104607;1274;63044;-21
2022/08/11 17:24:36;;;;;;;4.10;2.80;;;;;;;19.06;83.92;99275.08;104790;1274;76652;-21